sensor_id;sensor_type;location;lat;lon;timestamp;pressure;altitude;pressure_sealevel;temperature;humidity
37132;BME280;23035;50.032;21.978;2023-04-07T00:02:23;65172.94;;;0.01;100.00
37132;BME280;23035;50.032;21.978;2023-04-07T00:07:29;65180.78;;;0.06;100.00
37132;BME280;23035;50.032;21.978;2023-04-07T00:12:38;65185.16;;;0.12;100.00
37132;BME280;23035;50.032;21.978;2023-04-07T00:17:42;65187.59;;;0.10;100.00
37132;BME280;23035;50.032;21.978;2023-04-07T00:22:48;65204.84;;;0.31;100.00
37132;BME280;23035;50.032;21.978;2023-04-07T00:27:52;65197.91;;;0.24;100.00
37132;BME280;23035;50.032;21.978;2023-04-07T00:32:56;65201.44;;;0.23;100.00
37132;BME280;23035;50.032;21.978;2023-04-07T00:38:01;65220.69;;;0.44;100.00
37132;BME280;23035;50.032;21.978;2023-04-07T00:43:05;65212.81;;;0.39;100.00
37132;BME280;23035;50.032;21.978;2023-04-07T00:48:09;65165.38;;;-0.09;100.00
37132;BME280;23035;50.032;21.978;2023-04-07T00:53:15;65195.91;;;0.25;100.00
37132;BME280;23035;50.032;21.978;2023-04-07T00:58:20;65188.88;;;0.16;100.00
37132;BME280;23035;50.032;21.978;2023-04-07T01:03:29;65196.22;;;0.20;100.00
37132;BME280;23035;50.032;21.978;2023-04-07T01:08:41;65191.00;;;0.18;100.00
37132;BME280;23035;50.032;21.978;2023-04-07T01:13:49;65239.41;;;0.64;100.00
37132;BME280;23035;50.032;21.978;2023-04-07T01:19:13;65236.75;;;0.62;100.00
37132;BME280;23035;50.032;21.978;2023-04-07T01:30:15;65255.38;;;0.79;100.00
37132;BME280;23035;50.032;21.978;2023-04-07T01:35:20;65250.03;;;0.74;100.00
37132;BME280;23035;50.032;21.978;2023-04-07T01:40:27;65206.84;;;0.31;100.00
37132;BME280;23035;50.032;21.978;2023-04-07T01:45:34;65232.91;;;0.55;100.00
37132;BME280;23035;50.032;21.978;2023-04-07T01:50:39;65211.63;;;0.35;100.00
37132;BME280;23035;50.032;21.978;2023-04-07T01:55:44;65261.75;;;0.85;100.00
37132;BME280;23035;50.032;21.978;2023-04-07T02:00:50;65256.84;;;0.78;100.00
37132;BME280;23035;50.032;21.978;2023-04-07T02:06:00;65234.63;;;0.60;100.00
37132;BME280;23035;50.032;21.978;2023-04-07T02:11:08;65227.81;;;0.55;100.00
37132;BME280;23035;50.032;21.978;2023-04-07T02:16:16;65235.16;;;0.60;100.00
37132;BME280;23035;50.032;21.978;2023-04-07T02:21:21;65221.31;;;0.47;100.00
37132;BME280;23035;50.032;21.978;2023-04-07T02:26:26;65205.25;;;0.29;100.00
37132;BME280;23035;50.032;21.978;2023-04-07T02:31:33;65213.88;;;0.40;100.00
37132;BME280;23035;50.032;21.978;2023-04-07T02:36:37;65206.09;;;0.37;100.00
37132;BME280;23035;50.032;21.978;2023-04-07T02:41:41;65176.84;;;0.09;100.00
37132;BME280;23035;50.032;21.978;2023-04-07T02:46:46;65236.66;;;0.59;100.00
37132;BME280;23035;50.032;21.978;2023-04-07T02:51:51;65186.31;;;0.16;100.00
37132;BME280;23035;50.032;21.978;2023-04-07T02:56:55;65171.84;;;-0.01;100.00
37132;BME280;23035;50.032;21.978;2023-04-07T03:02:01;65181.75;;;0.04;100.00
37132;BME280;23035;50.032;21.978;2023-04-07T03:07:05;65189.41;;;0.16;100.00
37132;BME280;23035;50.032;21.978;2023-04-07T03:12:10;65202.59;;;0.26;100.00
37132;BME280;23035;50.032;21.978;2023-04-07T03:17:15;65208.56;;;0.35;100.00
37132;BME280;23035;50.032;21.978;2023-04-07T03:22:20;65179.41;;;0.09;100.00
37132;BME280;23035;50.032;21.978;2023-04-07T03:27:26;65211.75;;;0.38;100.00
37132;BME280;23035;50.032;21.978;2023-04-07T03:32:32;65173.88;;;-0.01;100.00
37132;BME280;23035;50.032;21.978;2023-04-07T03:37:36;65197.91;;;0.24;100.00
37132;BME280;23035;50.032;21.978;2023-04-07T03:42:47;65202.59;;;0.26;100.00
37132;BME280;23035;50.032;21.978;2023-04-07T03:47:53;65206.22;;;0.27;100.00
37132;BME280;23035;50.032;21.978;2023-04-07T03:52:57;65163.78;;;-0.11;100.00
37132;BME280;23035;50.032;21.978;2023-04-07T03:58:04;65176.66;;;0.04;100.00
37132;BME280;23035;50.032;21.978;2023-04-07T04:03:12;65181.97;;;0.09;100.00
37132;BME280;23035;50.032;21.978;2023-04-07T04:08:39;65161.75;;;-0.10;100.00
37132;BME280;23035;50.032;21.978;2023-04-07T04:13:44;65161.88;;;-0.08;100.00
37132;BME280;23035;50.032;21.978;2023-04-07T04:18:50;65204.72;;;0.28;100.00
37132;BME280;23035;50.032;21.978;2023-04-07T04:23:55;65179.50;;;-0.01;100.00
37132;BME280;23035;50.032;21.978;2023-04-07T04:29:01;65174.09;;;0.04;100.00
37132;BME280;23035;50.032;21.978;2023-04-07T04:34:06;65210.47;;;0.32;100.00
37132;BME280;23035;50.032;21.978;2023-04-07T04:39:11;65207.16;;;0.38;100.00
37132;BME280;23035;50.032;21.978;2023-04-07T04:44:15;65189.31;;;0.14;100.00
37132;BME280;23035;50.032;21.978;2023-04-07T04:49:20;65202.28;;;0.31;100.00
37132;BME280;23035;50.032;21.978;2023-04-07T04:54:26;65193.66;;;0.20;100.00
37132;BME280;23035;50.032;21.978;2023-04-07T04:59:32;65202.16;;;0.28;100.00
37132;BME280;23035;50.032;21.978;2023-04-07T05:04:40;65253.22;;;0.77;100.00
37132;BME280;23035;50.032;21.978;2023-04-07T05:10:05;65295.81;;;1.18;100.00
37132;BME280;23035;50.032;21.978;2023-04-07T05:15:13;65186.84;;;0.16;100.00
37132;BME280;23035;50.032;21.978;2023-04-07T05:20:22;65183.03;;;0.10;100.00
37132;BME280;23035;50.032;21.978;2023-04-07T05:25:27;65192.19;;;0.21;100.00
37132;BME280;23035;50.032;21.978;2023-04-07T05:30:34;65199.59;;;0.28;100.00
37132;BME280;23035;50.032;21.978;2023-04-07T05:35:42;65234.09;;;0.59;100.00
37132;BME280;23035;50.032;21.978;2023-04-07T05:40:47;65252.81;;;0.79;100.00
37132;BME280;23035;50.032;21.978;2023-04-07T05:46:00;65286.22;;;1.09;100.00
37132;BME280;23035;50.032;21.978;2023-04-07T05:51:06;65324.13;;;1.48;100.00
37132;BME280;23035;50.032;21.978;2023-04-07T05:56:11;65248.00;;;0.75;100.00
37132;BME280;23035;50.032;21.978;2023-04-07T06:01:19;65299.53;;;1.22;100.00
37132;BME280;23035;50.032;21.978;2023-04-07T06:06:24;65271.31;;;0.95;100.00
37132;BME280;23035;50.032;21.978;2023-04-07T06:11:30;65258.56;;;0.82;100.00
37132;BME280;23035;50.032;21.978;2023-04-07T06:16:33;65301.66;;;1.24;100.00
37132;BME280;23035;50.032;21.978;2023-04-07T06:21:39;65292.16;;;1.17;100.00
37132;BME280;23035;50.032;21.978;2023-04-07T06:26:43;65300.78;;;1.28;100.00
37132;BME280;23035;50.032;21.978;2023-04-07T06:31:48;65247.47;;;0.74;100.00
37132;BME280;23035;50.032;21.978;2023-04-07T06:36:55;65249.50;;;0.74;100.00
37132;BME280;23035;50.032;21.978;2023-04-07T06:42:00;65245.78;;;0.70;100.00
37132;BME280;23035;50.032;21.978;2023-04-07T06:47:10;65345.09;;;1.60;100.00
37132;BME280;23035;50.032;21.978;2023-04-07T06:52:16;65253.22;;;0.77;100.00
37132;BME280;23035;50.032;21.978;2023-04-07T06:57:19;65302.28;;;1.27;100.00
37132;BME280;23035;50.032;21.978;2023-04-07T07:02:24;65341.13;;;1.64;100.00
37132;BME280;23035;50.032;21.978;2023-04-07T07:07:29;65291.44;;;1.11;100.00
37132;BME280;23035;50.032;21.978;2023-04-07T07:12:33;65306.44;;;1.28;100.00
37132;BME280;23035;50.032;21.978;2023-04-07T07:17:37;65309.00;;;1.28;100.00
37132;BME280;23035;50.032;21.978;2023-04-07T07:22:43;65275.03;;;0.98;100.00
37132;BME280;23035;50.032;21.978;2023-04-07T07:27:47;65312.72;;;1.32;100.00
37132;BME280;23035;50.032;21.978;2023-04-07T07:32:54;65333.06;;;1.54;100.00
37132;BME280;23035;50.032;21.978;2023-04-07T07:38:00;65287.28;;;1.10;100.00
37132;BME280;23035;50.032;21.978;2023-04-07T07:43:04;65296.34;;;1.19;100.00
37132;BME280;23035;50.032;21.978;2023-04-07T07:48:09;65343.16;;;1.63;100.00
37132;BME280;23035;50.032;21.978;2023-04-07T07:53:14;65338.38;;;1.59;100.00
37132;BME280;23035;50.032;21.978;2023-04-07T07:58:20;65326.13;;;1.47;100.00
37132;BME280;23035;50.032;21.978;2023-04-07T08:03:24;65352.22;;;1.72;100.00
37132;BME280;23035;50.032;21.978;2023-04-07T08:08:30;65338.91;;;1.59;100.00
37132;BME280;23035;50.032;21.978;2023-04-07T08:13:34;65348.91;;;1.66;100.00
37132;BME280;23035;50.032;21.978;2023-04-07T08:18:38;65282.50;;;1.05;100.00
37132;BME280;23035;50.032;21.978;2023-04-07T08:23:43;65346.25;;;1.64;100.00
37132;BME280;23035;50.032;21.978;2023-04-07T08:28:48;65426.78;;;2.43;100.00
37132;BME280;23035;50.032;21.978;2023-04-07T08:33:54;65468.88;;;2.83;100.00
37132;BME280;23035;50.032;21.978;2023-04-07T08:39:00;65412.50;;;2.32;100.00
37132;BME280;23035;50.032;21.978;2023-04-07T08:44:07;65400.25;;;2.20;100.00
37132;BME280;23035;50.032;21.978;2023-04-07T08:49:12;65418.25;;;2.35;100.00
37132;BME280;23035;50.032;21.978;2023-04-07T08:54:17;65362.97;;;1.85;100.00
37132;BME280;23035;50.032;21.978;2023-04-07T08:59:24;65340.06;;;1.63;100.00
37132;BME280;23035;50.032;21.978;2023-04-07T09:04:31;65370.94;;;1.92;100.00
37132;BME280;23035;50.032;21.978;2023-04-07T09:09:37;65375.63;;;1.94;100.00
37132;BME280;23035;50.032;21.978;2023-04-07T09:14:41;65411.53;;;2.34;100.00
37132;BME280;23035;50.032;21.978;2023-04-07T09:19:45;65370.31;;;1.89;100.00
37132;BME280;23035;50.032;21.978;2023-04-07T09:24:51;65324.53;;;1.46;100.00
37132;BME280;23035;50.032;21.978;2023-04-07T09:30:10;65371.28;;;1.88;100.00
37132;BME280;23035;50.032;21.978;2023-04-07T09:35:14;65362.88;;;1.82;100.00
37132;BME280;23035;50.032;21.978;2023-04-07T09:40:26;65359.16;;;1.79;100.00
37132;BME280;23035;50.032;21.978;2023-04-07T09:45:31;65417.72;;;2.35;100.00
37132;BME280;23035;50.032;21.978;2023-04-07T09:50:39;65436.91;;;2.53;100.00
37132;BME280;23035;50.032;21.978;2023-04-07T09:55:49;65431.03;;;2.47;100.00
37132;BME280;23035;50.032;21.978;2023-04-07T10:00:53;65429.97;;;2.46;100.00
37132;BME280;23035;50.032;21.978;2023-04-07T10:05:58;65417.19;;;2.34;100.00
37132;BME280;23035;50.032;21.978;2023-04-07T10:11:05;65349.13;;;1.71;100.00
37132;BME280;23035;50.032;21.978;2023-04-07T10:16:10;65475.38;;;2.92;100.00
37132;BME280;23035;50.032;21.978;2023-04-07T10:21:15;65414.22;;;2.36;100.00
37132;BME280;23035;50.032;21.978;2023-04-07T10:26:25;65423.78;;;2.45;100.00
37132;BME280;23035;50.032;21.978;2023-04-07T10:31:31;65415.59;;;2.33;100.00
37132;BME280;23035;50.032;21.978;2023-04-07T10:37:11;65408.66;;;2.26;100.00
37132;BME280;23035;50.032;21.978;2023-04-07T10:42:45;65377.22;;;1.96;100.00
37132;BME280;23035;50.032;21.978;2023-04-07T10:48:09;65441.16;;;2.57;100.00
37132;BME280;23035;50.032;21.978;2023-04-07T10:53:14;65402.28;;;2.20;100.00
37132;BME280;23035;50.032;21.978;2023-04-07T10:58:24;65399.28;;;2.22;100.00
37132;BME280;23035;50.032;21.978;2023-04-07T11:03:31;65392.88;;;2.16;100.00
37132;BME280;23035;50.032;21.978;2023-04-07T11:08:38;65392.25;;;2.13;100.00
37132;BME280;23035;50.032;21.978;2023-04-07T11:13:45;65428.91;;;2.45;100.00
37132;BME280;23035;50.032;21.978;2023-04-07T11:18:56;65406.75;;;2.29;100.00
37132;BME280;23035;50.032;21.978;2023-04-07T11:24:00;65464.59;;;2.79;100.00
37132;BME280;23035;50.032;21.978;2023-04-07T11:29:06;65553.66;;;3.64;100.00
37132;BME280;23035;50.032;21.978;2023-04-07T11:34:10;65513.66;;;3.26;100.00
37132;BME280;23035;50.032;21.978;2023-04-07T11:39:18;65479.00;;;2.93;100.00
37132;BME280;23035;50.032;21.978;2023-04-07T11:44:24;65486.47;;;3.00;100.00
37132;BME280;23035;50.032;21.978;2023-04-07T11:49:28;65549.38;;;3.60;100.00
37132;BME280;23035;50.032;21.978;2023-04-07T11:54:40;65637.59;;;4.49;100.00
37132;BME280;23035;50.032;21.978;2023-04-07T11:59:46;65722.91;;;5.28;100.00
37132;BME280;23035;50.032;21.978;2023-04-07T12:04:54;65716.31;;;5.17;100.00
37132;BME280;23035;50.032;21.978;2023-04-07T12:10:17;65578.16;;;3.88;100.00
37132;BME280;23035;50.032;21.978;2023-04-07T12:15:23;65687.13;;;4.94;100.00
37132;BME280;23035;50.032;21.978;2023-04-07T12:20:27;65696.63;;;5.01;100.00
37132;BME280;23035;50.032;21.978;2023-04-07T12:25:31;65732.50;;;5.37;100.00
37132;BME280;23035;50.032;21.978;2023-04-07T12:30:36;65851.25;;;6.53;100.00
37132;BME280;23035;50.032;21.978;2023-04-07T12:35:40;65785.91;;;5.88;100.00
37132;BME280;23035;50.032;21.978;2023-04-07T12:40:44;65823.16;;;6.19;100.00
37132;BME280;23035;50.032;21.978;2023-04-07T12:45:49;65762.50;;;5.68;100.00
37132;BME280;23035;50.032;21.978;2023-04-07T12:50:53;65745.75;;;5.47;100.00
37132;BME280;23035;50.032;21.978;2023-04-07T12:55:58;65809.47;;;6.11;100.00
37132;BME280;23035;50.032;21.978;2023-04-07T13:01:03;65761.44;;;5.67;100.00
37132;BME280;23035;50.032;21.978;2023-04-07T13:06:08;65826.38;;;6.22;100.00
37132;BME280;23035;50.032;21.978;2023-04-07T13:11:12;65843.66;;;6.43;100.00
37132;BME280;23035;50.032;21.978;2023-04-07T13:16:17;65876.63;;;6.70;100.00
37132;BME280;23035;50.032;21.978;2023-04-07T13:21:21;65822.38;;;6.25;100.00
37132;BME280;23035;50.032;21.978;2023-04-07T13:26:45;65867.09;;;6.63;100.00
37132;BME280;23035;50.032;21.978;2023-04-07T13:31:51;65902.47;;;6.99;100.00
37132;BME280;23035;50.032;21.978;2023-04-07T13:36:55;65907.81;;;7.04;100.00
37132;BME280;23035;50.032;21.978;2023-04-07T13:42:00;65972.66;;;7.68;100.00
37132;BME280;23035;50.032;21.978;2023-04-07T13:47:05;65882.16;;;6.80;100.00
37132;BME280;23035;50.032;21.978;2023-04-07T13:52:10;65865.03;;;6.64;100.00
37132;BME280;23035;50.032;21.978;2023-04-07T13:57:14;65854.59;;;6.46;100.00
37132;BME280;23035;50.032;21.978;2023-04-07T14:02:24;65910.41;;;7.04;100.00
37132;BME280;23035;50.032;21.978;2023-04-07T14:07:30;65825.03;;;6.28;100.00
37132;BME280;23035;50.032;21.978;2023-04-07T14:12:34;65735.28;;;5.42;100.00
37132;BME280;23035;50.032;21.978;2023-04-07T14:17:40;65775.06;;;5.73;100.00
37132;BME280;23035;50.032;21.978;2023-04-07T14:22:43;65859.25;;;6.60;100.00
37132;BME280;23035;50.032;21.978;2023-04-07T14:27:48;65810.53;;;6.12;100.00
37132;BME280;23035;50.032;21.978;2023-04-07T14:32:54;65806.25;;;6.08;100.00
37132;BME280;23035;50.032;21.978;2023-04-07T14:37:58;65745.97;;;5.53;100.00
37132;BME280;23035;50.032;21.978;2023-04-07T14:43:02;65744.91;;;5.52;100.00
37132;BME280;23035;50.032;21.978;2023-04-07T14:48:10;65756.44;;;5.58;100.00
37132;BME280;23035;50.032;21.978;2023-04-07T14:53:15;65812.56;;;6.11;100.00
37132;BME280;23035;50.032;21.978;2023-04-07T14:58:19;65743.72;;;5.48;100.00
37132;BME280;23035;50.032;21.978;2023-04-07T15:03:24;65753.88;;;5.58;100.00
37132;BME280;23035;50.032;21.978;2023-04-07T15:08:29;65765.63;;;5.69;100.00
37132;BME280;23035;50.032;21.978;2023-04-07T15:13:33;65789.56;;;5.89;100.00
37132;BME280;23035;50.032;21.978;2023-04-07T15:18:41;65798.78;;;6.00;100.00
37132;BME280;23035;50.032;21.978;2023-04-07T15:23:46;65787.13;;;5.92;100.00
37132;BME280;23035;50.032;21.978;2023-04-07T15:28:50;65818.44;;;6.17;100.00
37132;BME280;23035;50.032;21.978;2023-04-07T15:33:56;65741.59;;;5.46;100.00
37132;BME280;23035;50.032;21.978;2023-04-07T15:39:01;65757.72;;;5.64;100.00
37132;BME280;23035;50.032;21.978;2023-04-07T15:44:06;65660.53;;;4.71;100.00
37132;BME280;23035;50.032;21.978;2023-04-07T15:49:12;65718.09;;;5.24;100.00
37132;BME280;23035;50.032;21.978;2023-04-07T15:54:21;65819.09;;;6.20;100.00
37132;BME280;23035;50.032;21.978;2023-04-07T15:59:25;65806.25;;;6.08;100.00
37132;BME280;23035;50.032;21.978;2023-04-07T16:04:34;65767.34;;;5.73;100.00
37132;BME280;23035;50.032;21.978;2023-04-07T16:09:38;65694.94;;;4.97;100.00
37132;BME280;23035;50.032;21.978;2023-04-07T16:14:42;65771.50;;;5.74;100.00
37132;BME280;23035;50.032;21.978;2023-04-07T16:19:48;65737.94;;;5.45;100.00
37132;BME280;23035;50.032;21.978;2023-04-07T16:24:52;65790.94;;;5.98;100.00
37132;BME280;23035;50.032;21.978;2023-04-07T16:29:56;65811.16;;;6.15;100.00
37132;BME280;23035;50.032;21.978;2023-04-07T16:35:02;65733.03;;;5.38;100.00
37132;BME280;23035;50.032;21.978;2023-04-07T16:40:07;65738.94;;;5.43;100.00
37132;BME280;23035;50.032;21.978;2023-04-07T16:45:11;65773.63;;;5.76;100.00
37132;BME280;23035;50.032;21.978;2023-04-07T16:50:17;65754.50;;;5.61;100.00
37132;BME280;23035;50.032;21.978;2023-04-07T16:55:21;65710.09;;;5.16;100.00
37132;BME280;23035;50.032;21.978;2023-04-07T17:00:25;65705.38;;;5.14;100.00
37132;BME280;23035;50.032;21.978;2023-04-07T17:05:31;65724.41;;;5.27;100.00
37132;BME280;23035;50.032;21.978;2023-04-07T17:10:35;65732.59;;;5.40;100.00
37132;BME280;23035;50.032;21.978;2023-04-07T17:15:39;65700.38;;;5.04;100.00
37132;BME280;23035;50.032;21.978;2023-04-07T17:20:44;65700.28;;;5.02;100.00
37132;BME280;23035;50.032;21.978;2023-04-07T17:25:49;65673.25;;;4.81;100.00
37132;BME280;23035;50.032;21.978;2023-04-07T17:30:53;65668.44;;;4.76;100.00
37132;BME280;23035;50.032;21.978;2023-04-07T17:36:00;65693.44;;;4.98;100.00
37132;BME280;23035;50.032;21.978;2023-04-07T17:41:05;65693.63;;;5.03;100.00
37132;BME280;23035;50.032;21.978;2023-04-07T17:46:09;65683.19;;;4.85;100.00
37132;BME280;23035;50.032;21.978;2023-04-07T17:51:14;65692.91;;;4.97;100.00
37132;BME280;23035;50.032;21.978;2023-04-07T17:56:19;65685.34;;;4.87;100.00
37132;BME280;23035;50.032;21.978;2023-04-07T18:01:24;65686.50;;;4.91;100.00
37132;BME280;23035;50.032;21.978;2023-04-07T18:06:29;65711.59;;;5.15;100.00
37132;BME280;23035;50.032;21.978;2023-04-07T18:11:33;65709.88;;;5.11;100.00
37132;BME280;23035;50.032;21.978;2023-04-07T18:16:37;65702.72;;;5.11;100.00
37132;BME280;23035;50.032;21.978;2023-04-07T18:21:43;65731.53;;;5.39;100.00
37132;BME280;23035;50.032;21.978;2023-04-07T18:26:47;65736.88;;;5.44;100.00
37132;BME280;23035;50.032;21.978;2023-04-07T18:31:51;65581.91;;;3.91;100.00
37132;BME280;23035;50.032;21.978;2023-04-07T18:36:57;65638.47;;;4.45;100.00
37132;BME280;23035;50.032;21.978;2023-04-07T18:42:01;65669.50;;;4.77;100.00
37132;BME280;23035;50.032;21.978;2023-04-07T18:47:05;65656.06;;;4.62;100.00
37132;BME280;23035;50.032;21.978;2023-04-07T18:52:11;65662.69;;;4.73;100.00
37132;BME280;23035;50.032;21.978;2023-04-07T18:57:16;65674.31;;;4.82;100.00
37132;BME280;23035;50.032;21.978;2023-04-07T19:02:20;65637.41;;;4.44;100.00
37132;BME280;23035;50.032;21.978;2023-04-07T19:07:26;65610.63;;;4.16;100.00
37132;BME280;23035;50.032;21.978;2023-04-07T19:12:30;65634.91;;;4.47;100.00
37132;BME280;23035;50.032;21.978;2023-04-07T19:17:34;65576.66;;;3.89;100.00
37132;BME280;23035;50.032;21.978;2023-04-07T19:22:42;65547.25;;;3.58;100.00
37132;BME280;23035;50.032;21.978;2023-04-07T19:27:46;65587.97;;;4.02;100.00
37132;BME280;23035;50.032;21.978;2023-04-07T19:32:50;65585.75;;;3.97;100.00
37132;BME280;23035;50.032;21.978;2023-04-07T19:37:56;65599.59;;;4.11;100.00
37132;BME280;23035;50.032;21.978;2023-04-07T19:43:00;65551.50;;;3.62;100.00
37132;BME280;23035;50.032;21.978;2023-04-07T19:48:04;65625.84;;;4.38;100.00
37132;BME280;23035;50.032;21.978;2023-04-07T19:53:11;65643.25;;;4.50;100.00
37132;BME280;23035;50.032;21.978;2023-04-07T19:58:17;65719.78;;;5.28;100.00
37132;BME280;23035;50.032;21.978;2023-04-07T20:03:23;65729.31;;;5.34;100.00
37132;BME280;23035;50.032;21.978;2023-04-07T20:08:28;65718.00;;;5.21;100.00
37132;BME280;23035;50.032;21.978;2023-04-07T20:13:32;65667.81;;;4.73;100.00
37132;BME280;23035;50.032;21.978;2023-04-07T20:18:36;65643.47;;;4.55;100.00
37132;BME280;23035;50.032;21.978;2023-04-07T20:23:42;65677.63;;;4.87;100.00
37132;BME280;23035;50.032;21.978;2023-04-07T20:28:46;65700.56;;;5.09;100.00
37132;BME280;23035;50.032;21.978;2023-04-07T20:33:50;65696.31;;;5.05;100.00
37132;BME280;23035;50.032;21.978;2023-04-07T20:38:56;65654.13;;;4.65;100.00
37132;BME280;23035;50.032;21.978;2023-04-07T20:44:00;65539.44;;;3.56;100.00
37132;BME280;23035;50.032;21.978;2023-04-07T20:49:05;65600.13;;;4.11;100.00
37132;BME280;23035;50.032;21.978;2023-04-07T20:54:10;65608.22;;;4.21;100.00
37132;BME280;23035;50.032;21.978;2023-04-07T20:59:14;65656.06;;;4.62;100.00
37132;BME280;23035;50.032;21.978;2023-04-07T21:04:18;65627.34;;;4.37;100.00
37132;BME280;23035;50.032;21.978;2023-04-07T21:09:24;65687.75;;;4.97;100.00
37132;BME280;23035;50.032;21.978;2023-04-07T21:14:29;65693.63;;;5.03;100.00
37132;BME280;23035;50.032;21.978;2023-04-07T21:19:33;65721.84;;;5.27;100.00
37132;BME280;23035;50.032;21.978;2023-04-07T21:24:39;65554.38;;;3.70;100.00
37132;BME280;23035;50.032;21.978;2023-04-07T21:29:43;65474.31;;;2.91;100.00
37132;BME280;23035;50.032;21.978;2023-04-07T21:34:50;65542.44;;;3.54;100.00
37132;BME280;23035;50.032;21.978;2023-04-07T21:39:56;65526.22;;;3.45;100.00
37132;BME280;23035;50.032;21.978;2023-04-07T21:45:00;65539.22;;;3.51;100.00
37132;BME280;23035;50.032;21.978;2023-04-07T21:50:05;65507.34;;;3.23;100.00
37132;BME280;23035;50.032;21.978;2023-04-07T21:55:11;65576.66;;;3.89;100.00
37132;BME280;23035;50.032;21.978;2023-04-07T22:00:15;65534.63;;;3.51;100.00
37132;BME280;23035;50.032;21.978;2023-04-07T22:05:20;65515.97;;;3.33;100.00
37132;BME280;23035;50.032;21.978;2023-04-07T22:10:29;65482.94;;;3.02;100.00
37132;BME280;23035;50.032;21.978;2023-04-07T22:15:32;65449.78;;;2.68;100.00
37132;BME280;23035;50.032;21.978;2023-04-07T22:20:36;65487.09;;;3.03;100.00
37132;BME280;23035;50.032;21.978;2023-04-07T22:25:42;65410.28;;;2.27;100.00
37132;BME280;23035;50.032;21.978;2023-04-07T22:30:46;65364.56;;;1.86;100.00
37132;BME280;23035;50.032;21.978;2023-04-07T22:35:50;65343.25;;;1.66;100.00
37132;BME280;23035;50.032;21.978;2023-04-07T22:40:55;65337.72;;;1.56;100.00
37132;BME280;23035;50.032;21.978;2023-04-07T22:45:59;65352.22;;;1.72;100.00
37132;BME280;23035;50.032;21.978;2023-04-07T22:51:03;65374.38;;;1.88;100.00
37132;BME280;23035;50.032;21.978;2023-04-07T22:56:10;65368.72;;;1.88;100.00
37132;BME280;23035;50.032;21.978;2023-04-07T23:01:14;65405.03;;;2.25;100.00
37132;BME280;23035;50.032;21.978;2023-04-07T23:06:19;65385.22;;;2.04;100.00
37132;BME280;23035;50.032;21.978;2023-04-07T23:11:24;65401.66;;;2.17;100.00
37132;BME280;23035;50.032;21.978;2023-04-07T23:16:28;65352.75;;;1.72;100.00
37132;BME280;23035;50.032;21.978;2023-04-07T23:21:32;65334.22;;;1.57;100.00
37132;BME280;23035;50.032;21.978;2023-04-07T23:26:38;65339.97;;;1.60;100.00
37132;BME280;23035;50.032;21.978;2023-04-07T23:31:42;65340.16;;;1.65;100.00
37132;BME280;23035;50.032;21.978;2023-04-07T23:36:46;65384.38;;;2.08;100.00
37132;BME280;23035;50.032;21.978;2023-04-07T23:41:51;65398.53;;;2.16;100.00
37132;BME280;23035;50.032;21.978;2023-04-07T23:46:55;65385.44;;;2.09;100.00
37132;BME280;23035;50.032;21.978;2023-04-07T23:51:59;65410.28;;;2.27;100.00
37132;BME280;23035;50.032;21.978;2023-04-07T23:57:04;65418.47;;;2.40;100.00
